メインページ
METAR-TAF:

METAR-TAF

空港 :

Swift Current, サスカチュワン州, カナダ

緯度: 50-17N, 経度: 107-41W, 海抜: 818m

現時点の気象観測

当レポートは1時間7分前の10:00(UTC)に作成
南/南東の風 7kt
気温 11°C
湿度 76%
気圧 1017 hPa
視程: 14.5km
晴天

METAR: CYYN 051000Z AUTO 16007KT 9SM CLR 11/07 A3002 RMK SLP163

時間: 05:07 (11:07 UTC)

予報

当レポートは5時間29分前の05:38(UTC)に作成
予報は05日の 06時(UTC)から 05日の 18時(UTC)まで有効
の風 5kt
視程: 10km
晴天
05日の 07時(UTC)から 05日の 09時(UTC)まで徐々に
南/南東の風 8kt
05日の 1600時(UTC)から
南/南西の風 10kt
視程: 10km
晴天

TAF: CYYN 050538Z 0506/0518 10005KT P6SM SKC BECMG 0507/0509 16008KT FM051600 21010KT P6SM SKC RMK FCST BASED ON AUTO OBS. NXT FCST BY 051200Z

4,000以上の空港の気象観測と天気予報(METAR報とTAF報)

利用可能な観測所は地図上に黄色い丸と赤い丸で示す。

丸の上にカーソルを重ねると観測所名を参照できる。

次にクリックすると気象観測と天気予報を参照できる。

マップの切り替え:黒色「×」印の緑ボタンをクリックして拡大、「-」印の緑ボタンをクリックして縮小、緑色の三角印をクリックして隣りの地図に切り替え


METAR-TAF: